Time;durP1;ratioP1;P1;durP2;ratioP2;P2;SDS_P1;SDS_P2;PMS_P1;PMS_P2;Temp;Humidity;BMP_temperature;BMP_pressure;BME280_temperature;BME280_humidity;BME280_pressure;Samples;Min_cycle;Max_cycle;Signal;HPM_P1;HPM_P2
2023/09/28 00:02:50;;;;;;;6.03;3.63;;;;;;;17.90;90.20;101246.63;5050115;28;20032;-55
2023/09/28 00:05:16;;;;;;;4.32;3.05;;;;;;;17.87;90.02;101252.31;5050888;28;20032;-54
2023/09/28 00:07:43;;;;;;;6.07;3.45;;;;;;;17.87;90.45;101248.75;5048017;28;20029;-55
2023/09/28 00:10:11;;;;;;;5.20;3.28;;;;;;;17.80;91.01;101253.88;5051809;28;20112;-55
2023/09/28 00:12:40;;;;;;;5.80;3.50;;;;;;;17.84;90.77;101252.59;5050627;28;20489;-56
2023/09/28 00:15:07;;;;;;;4.60;3.20;;;;;;;17.83;90.32;101258.94;5051802;28;20025;-55
2023/09/28 00:17:33;;;;;;;6.32;3.33;;;;;;;17.83;90.48;101258.09;5051485;28;20083;-55
2023/09/28 00:19:58;;;;;;;5.50;3.03;;;;;;;17.79;90.15;101262.13;5051596;28;20463;-55
2023/09/28 00:22:23;;;;;;;3.72;2.97;;;;;;;17.78;90.49;101258.56;5051008;28;20021;-54
2023/09/28 00:24:49;;;;;;;5.05;3.40;;;;;;;17.75;90.21;101267.78;5050392;28;20029;-53
2023/09/28 00:27:15;;;;;;;4.35;3.17;;;;;;;17.73;90.95;101272.47;5049673;28;20636;-54
2023/09/28 00:29:40;;;;;;;5.32;3.30;;;;;;;17.72;90.70;101270.78;5051092;28;20033;-54
2023/09/28 00:32:06;;;;;;;4.72;3.00;;;;;;;17.70;90.57;101274.59;5051362;28;20028;-53
2023/09/28 00:34:31;;;;;;;5.13;3.22;;;;;;;17.68;91.24;101272.06;5050833;28;20037;-54
2023/09/28 00:36:57;;;;;;;4.88;3.13;;;;;;;17.69;91.10;101278.31;5050790;28;20032;-56
2023/09/28 00:39:22;;;;;;;7.38;3.38;;;;;;;17.66;91.55;101271.38;5050302;28;20029;-55
2023/09/28 00:41:48;;;;;;;4.85;3.33;;;;;;;17.65;90.99;101285.84;5051289;28;20044;-54
2023/09/28 00:44:14;;;;;;;3.97;3.00;;;;;;;17.61;91.63;101289.81;5049291;28;20045;-53
2023/09/28 00:46:39;;;;;;;4.40;3.20;;;;;;;17.60;91.95;101293.47;5051391;28;20408;-56
2023/09/28 00:49:05;;;;;;;6.18;3.30;;;;;;;17.58;92.37;101298.16;5051389;28;20029;-55
2023/09/28 00:51:32;;;;;;;4.50;3.47;;;;;;;17.56;91.54;101294.81;5051120;28;20022;-53
2023/09/28 00:54:02;;;;;;;4.63;3.25;;;;;;;17.53;92.54;101289.72;5050387;28;20032;-52
2023/09/28 00:56:28;;;;;;;5.82;3.45;;;;;;;17.51;92.48;101289.03;5051184;28;20055;-55
2023/09/28 00:58:56;;;;;;;4.93;3.47;;;;;;;17.48;92.24;101284.81;5051256;28;20220;-56
2023/09/28 01:01:24;;;;;;;5.68;3.22;;;;;;;17.47;92.54;101282.28;5050950;28;20185;-54
2023/09/28 01:03:50;;;;;;;5.30;3.90;;;;;;;17.42;92.96;101277.38;5049445;28;20028;-55
2023/09/28 01:06:15;;;;;;;6.80;3.80;;;;;;;17.38;93.12;101279.50;5051337;28;20360;-56
2023/09/28 01:08:41;;;;;;;5.25;3.30;;;;;;;17.34;93.57;101282.66;5051147;28;20028;-56
2023/09/28 01:11:07;;;;;;;4.85;3.33;;;;;;;17.31;93.83;101293.69;5050416;28;20074;-55
2023/09/28 01:13:33;;;;;;;4.88;3.40;;;;;;;17.30;94.01;101283.94;5051009;28;20036;-56
2023/09/28 01:15:59;;;;;;;5.90;3.20;;;;;;;17.28;93.75;101291.31;5050297;28;20021;-55
2023/09/28 01:18:24;;;;;;;4.65;3.40;;;;;;;17.24;93.60;101288.09;5051257;28;20031;-56
2023/09/28 01:20:51;;;;;;;5.78;3.65;;;;;;;17.20;94.05;101287.53;5052629;28;20094;-56
2023/09/28 01:23:17;;;;;;;4.03;3.08;;;;;;;17.18;93.81;101288.69;5054658;28;20568;-55
2023/09/28 01:25:47;;;;;;;3.40;3.10;;;;;;;17.16;94.97;101298.72;5053949;28;20104;-56
2023/09/28 01:28:13;;;;;;;5.47;3.53;;;;;;;17.13;95.19;101299.03;5054995;28;20032;-53
2023/09/28 01:30:39;;;;;;;5.78;3.03;;;;;;;17.10;94.89;101291.25;5053436;28;20103;-55
2023/09/28 01:33:05;;;;;;;5.15;3.63;;;;;;;17.08;95.58;101294.09;5054850;28;20111;-56
2023/09/28 01:35:31;;;;;;;4.65;3.33;;;;;;;17.01;95.75;101284.97;5054633;28;20035;-56
2023/09/28 01:38:18;;;;;;;6.18;3.35;;;;;;;17.00;95.91;101285.94;5054140;28;20025;-56
2023/09/28 01:40:44;;;;;;;6.43;3.55;;;;;;;16.93;96.55;101287.53;5053633;28;20024;-56
2023/09/28 01:43:10;;;;;;;5.20;3.65;;;;;;;16.97;96.67;101296.97;5050566;28;20447;-56
2023/09/28 01:45:35;;;;;;;5.55;3.78;;;;;;;16.94;97.04;101308.03;5054500;28;20021;-56
2023/09/28 01:48:03;;;;;;;5.53;4.03;;;;;;;16.89;96.94;101302.25;5054220;28;20025;-54
2023/09/28 01:50:29;;;;;;;5.20;3.63;;;;;;;16.90;98.06;101303.94;5053778;28;20025;-54
2023/09/28 01:52:54;;;;;;;5.22;3.40;;;;;;;16.87;97.21;101304.22;5051468;28;20025;-56
2023/09/28 01:55:19;;;;;;;5.97;3.40;;;;;;;16.84;96.77;101299.97;5054451;28;20043;-54
2023/09/28 01:57:45;;;;;;;8.23;3.55;;;;;;;16.80;96.93;101307.47;5054015;28;20045;-56
2023/09/28 02:00:15;;;;;;;5.40;3.67;;;;;;;16.78;96.60;101309.44;5054082;28;20035;-56
2023/09/28 02:02:42;;;;;;;5.28;3.58;;;;;;;16.74;97.73;101310.75;5053772;28;20037;-56
2023/09/28 02:05:08;;;;;;;10.85;3.80;;;;;;;16.74;98.20;101312.59;5054169;28;20082;-56
2023/09/28 02:07:34;;;;;;;7.28;3.75;;;;;;;16.70;98.74;101320.06;5052574;28;20426;-56
2023/09/28 02:10:00;;;;;;;7.70;4.10;;;;;;;16.67;98.69;101331.09;5053986;28;20017;-56
2023/09/28 02:12:27;;;;;;;6.20;3.90;;;;;;;16.62;99.01;101325.31;5053925;28;20448;-56
2023/09/28 02:14:53;;;;;;;7.03;3.92;;;;;;;16.62;98.83;101330.66;5053881;28;20471;-56
2023/09/28 02:17:19;;;;;;;5.38;3.65;;;;;;;16.60;99.65;101332.66;5053406;28;20040;-56
2023/09/28 02:19:44;;;;;;;5.28;3.45;;;;;;;16.55;99.00;101337.59;5053805;28;20029;-56
2023/09/28 02:22:10;;;;;;;5.78;3.60;;;;;;;16.54;99.62;101331.41;5053614;28;20025;-56
2023/09/28 02:24:35;;;;;;;7.88;3.97;;;;;;;16.52;99.62;101327.16;5052594;28;20120;-56
2023/09/28 02:27:00;;;;;;;5.38;3.95;;;;;;;16.48;98.97;101337.34;5053545;28;20430;-55
2023/09/28 02:29:26;;;;;;;5.35;3.80;;;;;;;16.46;99.69;101329.44;5053161;28;20109;-54
2023/09/28 02:31:51;;;;;;;4.45;3.60;;;;;;;16.45;100.00;101333.13;5052013;28;20021;-56
2023/09/28 02:34:16;;;;;;;5.32;3.95;;;;;;;16.40;100.00;101335.41;5053575;28;20033;-56
2023/09/28 02:36:42;;;;;;;6.65;4.13;;;;;;;16.39;100.00;101330.19;5052488;28;20033;-56
2023/09/28 02:39:07;;;;;;;5.72;3.58;;;;;;;16.37;100.00;101338.34;5053655;28;20071;-55
2023/09/28 02:41:34;;;;;;;6.85;3.80;;;;;;;16.34;100.00;101335.97;5053240;28;20490;-56
2023/09/28 02:43:59;;;;;;;6.35;4.05;;;;;;;16.29;100.00;101332.88;5053202;28;20486;-56
2023/09/28 02:46:26;;;;;;;4.35;3.95;;;;;;;16.27;100.00;101330.31;5053223;28;20021;-57
2023/09/28 02:48:51;;;;;;;4.13;3.70;;;;;;;16.25;100.00;101328.75;5053695;28;20434;-56
2023/09/28 02:51:17;;;;;;;3.97;3.58;;;;;;;16.22;100.00;101334.41;5051905;28;20032;-56
2023/09/28 02:53:42;;;;;;;8.15;4.68;;;;;;;16.19;100.00;101334.72;5052100;28;20039;-56
2023/09/28 02:56:08;;;;;;;5.45;3.65;;;;;;;16.18;100.00;101335.69;5053029;28;20024;-56
2023/09/28 02:58:34;;;;;;;5.40;4.53;;;;;;;16.11;100.00;101339.94;5053293;28;20027;-56
2023/09/28 03:01:00;;;;;;;4.97;4.00;;;;;;;16.13;100.00;101340.63;5052689;28;20020;-56
2023/09/28 03:03:26;;;;;;;6.20;3.72;;;;;;;16.09;100.00;101343.59;5052812;28;20375;-56
2023/09/28 03:05:56;;;;;;;7.30;4.30;;;;;;;16.06;100.00;101341.19;5052724;28;20031;-56
2023/09/28 03:08:21;;;;;;;11.80;4.50;;;;;;;16.05;100.00;101346.69;5052962;28;20450;-55
2023/09/28 03:10:47;;;;;;;4.72;4.30;;;;;;;16.03;100.00;101346.00;5051469;28;20057;-55
2023/09/28 03:13:13;;;;;;;5.75;3.90;;;;;;;16.01;100.00;101350.66;5052665;28;20035;-54
2023/09/28 03:15:43;;;;;;;7.45;3.97;;;;;;;16.00;100.00;101362.34;5053122;28;20404;-56
2023/09/28 03:18:10;;;;;;;5.00;4.30;;;;;;;15.96;100.00;101359.09;5052395;28;20078;-56
2023/09/28 03:20:35;;;;;;;5.40;4.22;;;;;;;15.96;100.00;101367.13;5052428;28;20043;-56
2023/09/28 03:23:01;;;;;;;7.28;4.15;;;;;;;15.96;100.00;101363.63;5052142;28;20483;-56
2023/09/28 03:25:27;;;;;;;7.20;4.10;;;;;;;15.93;100.00;101370.09;5052502;28;20091;-56
2023/09/28 03:27:54;;;;;;;6.05;4.30;;;;;;;15.92;100.00;101371.09;5052721;28;20028;-56
2023/09/28 03:30:22;;;;;;;9.95;4.32;;;;;;;15.88;100.00;101369.66;5051887;28;20104;-56
2023/09/28 03:32:47;;;;;;;7.72;4.13;;;;;;;15.86;100.00;101369.81;5052428;28;20093;-56
2023/09/28 03:35:14;;;;;;;6.95;4.50;;;;;;;15.83;100.00;101378.13;5051560;28;20021;-57
2023/09/28 03:37:40;;;;;;;7.30;4.35;;;;;;;15.82;100.00;101372.91;5052023;28;20116;-56
2023/09/28 03:40:10;;;;;;;5.00;4.50;;;;;;;15.82;100.00;101381.78;5051947;28;20017;-54
2023/09/28 03:42:48;;;;;;;6.38;4.53;;;;;;;15.79;100.00;101391.94;5051204;28;20521;-56
2023/09/28 03:45:16;;;;;;;6.35;4.43;;;;;;;15.76;100.00;101395.72;5051907;28;20028;-55
2023/09/28 03:47:43;;;;;;;6.15;4.20;;;;;;;15.70;100.00;101399.78;5052009;28;20025;-55
2023/09/28 03:50:10;;;;;;;8.13;4.05;;;;;;;15.66;100.00;101408.22;5052134;28;20024;-56
2023/09/28 03:52:37;;;;;;;5.50;4.25;;;;;;;15.68;100.00;101408.94;5049945;28;20104;-56
2023/09/28 03:55:04;;;;;;;6.97;4.35;;;;;;;15.66;100.00;101401.03;5051635;28;20475;-56
2023/09/28 03:57:30;;;;;;;8.85;4.55;;;;;;;15.62;100.00;101394.28;5050633;28;20491;-56
2023/09/28 03:59:56;;;;;;;6.07;4.63;;;;;;;15.62;100.00;101391.59;5052100;28;20104;-56
2023/09/28 04:02:26;;;;;;;6.20;4.55;;;;;;;15.57;100.00;101396.53;5048918;28;20078;-56
2023/09/28 04:04:51;;;;;;;5.63;3.92;;;;;;;15.59;100.00;101407.94;5050998;28;20037;-53
2023/09/28 04:07:16;;;;;;;4.78;4.22;;;;;;;15.56;100.00;101404.69;5051590;28;20062;-56
2023/09/28 04:09:42;;;;;;;7.95;4.68;;;;;;;15.52;100.00;101399.59;5051841;28;20456;-54
2023/09/28 04:12:07;;;;;;;6.82;4.43;;;;;;;15.51;100.00;101416.63;5051411;28;20036;-56
2023/09/28 04:14:32;;;;;;;7.63;4.13;;;;;;;15.50;100.00;101414.97;5050787;28;20056;-56
2023/09/28 04:16:58;;;;;;;6.75;4.90;;;;;;;15.50;100.00;101406.06;5050950;28;20025;-54
2023/09/28 04:19:23;;;;;;;6.07;4.70;;;;;;;15.46;100.00;101410.00;5050477;28;20463;-56
2023/09/28 04:21:48;;;;;;;7.35;5.07;;;;;;;15.46;100.00;101405.47;5050520;28;20424;-56
2023/09/28 04:24:14;;;;;;;5.88;4.60;;;;;;;15.45;100.00;101410.97;5051660;28;20033;-55
2023/09/28 04:26:40;;;;;;;9.55;5.15;;;;;;;15.43;100.00;101408.44;5051213;28;20029;-53
2023/09/28 04:29:05;;;;;;;7.38;5.55;;;;;;;15.38;100.00;101408.00;5051693;28;20491;-53
2023/09/28 04:31:31;;;;;;;7.13;4.82;;;;;;;15.35;100.00;101414.47;5050812;28;20051;-55
2023/09/28 04:33:57;;;;;;;10.30;4.53;;;;;;;15.33;100.00;101413.75;5051336;28;20112;-56
2023/09/28 04:36:23;;;;;;;7.28;5.00;;;;;;;15.28;100.00;101412.47;5051080;28;20066;-55
2023/09/28 04:38:49;;;;;;;6.60;4.68;;;;;;;15.28;100.00;101420.50;5050768;28;20489;-55
2023/09/28 04:41:15;;;;;;;7.28;4.93;;;;;;;15.25;100.00;101424.25;5050684;28;20116;-56
2023/09/28 04:43:41;;;;;;;6.60;5.03;;;;;;;15.22;100.00;101419.22;5050743;28;20044;-56
2023/09/28 04:46:07;;;;;;;10.52;5.07;;;;;;;15.20;100.00;101429.19;5051227;28;20039;-56
2023/09/28 04:48:33;;;;;;;8.02;5.35;;;;;;;15.20;100.00;101433.69;5051415;28;20467;-55
2023/09/28 04:50:58;;;;;;;7.70;4.55;;;;;;;15.13;100.00;101433.38;5049196;28;20549;-55
2023/09/28 04:53:23;;;;;;;7.93;5.07;;;;;;;15.13;100.00;101430.69;5051618;28;20033;-56
2023/09/28 04:55:49;;;;;;;7.38;5.38;;;;;;;15.11;100.00;101420.13;5053797;28;20049;-54
2023/09/28 04:58:14;;;;;;;7.57;5.53;;;;;;;15.07;100.00;101423.19;5054907;28;20040;-54
2023/09/28 05:00:40;;;;;;;7.78;5.13;;;;;;;15.08;100.00;101428.41;5053752;28;20111;-56
2023/09/28 05:03:05;;;;;;;9.13;4.90;;;;;;;15.05;100.00;101450.06;5052058;28;20078;-56
2023/09/28 05:05:32;;;;;;;8.40;5.65;;;;;;;15.05;100.00;101459.94;5055509;28;20021;-54
2023/09/28 05:07:58;;;;;;;10.65;5.22;;;;;;;15.00;100.00;101468.34;5055316;28;20108;-56
2023/09/28 05:10:24;;;;;;;9.30;5.63;;;;;;;15.01;100.00;101461.19;5053216;28;20112;-57
2023/09/28 05:12:49;;;;;;;8.35;4.68;;;;;;;14.97;100.00;101466.81;5055146;28;20100;-56
2023/09/28 05:15:15;;;;;;;10.20;4.63;;;;;;;14.94;100.00;101475.09;5055128;28;20021;-55
2023/09/28 05:17:40;;;;;;;10.10;4.70;;;;;;;14.95;100.00;101481.28;5053795;28;20102;-56
2023/09/28 05:20:07;;;;;;;12.60;4.93;;;;;;;14.93;100.00;101484.06;5054626;28;20091;-55
2023/09/28 05:22:33;;;;;;;10.20;5.53;;;;;;;14.90;100.00;101472.78;5051153;28;20025;-55
2023/09/28 05:24:59;;;;;;;7.93;4.97;;;;;;;14.87;100.00;101489.97;5054052;28;20040;-57
2023/09/28 05:27:24;;;;;;;8.95;4.57;;;;;;;14.86;100.00;101496.28;5054411;28;20467;-54
2023/09/28 05:29:50;;;;;;;10.63;5.55;;;;;;;14.83;100.00;101504.56;5054462;28;20029;-55
2023/09/28 05:32:15;;;;;;;8.18;4.78;;;;;;;14.83;100.00;101495.69;5049845;28;20021;-56
2023/09/28 05:34:40;;;;;;;12.82;4.47;;;;;;;14.80;100.00;101497.66;5053855;28;20032;-56
2023/09/28 05:37:06;;;;;;;9.20;4.50;;;;;;;14.78;100.00;101504.09;5054519;28;20066;-56
2023/09/28 05:39:31;;;;;;;8.25;4.57;;;;;;;14.74;100.00;101500.00;5053087;28;20029;-55
2023/09/28 05:41:57;;;;;;;9.27;4.63;;;;;;;14.69;100.00;101499.50;5054211;28;20478;-55
2023/09/28 05:44:22;;;;;;;10.63;4.85;;;;;;;14.68;100.00;101509.38;5054507;28;20186;-55
2023/09/28 05:46:47;;;;;;;11.07;5.15;;;;;;;14.68;100.00;101524.56;5053771;28;20036;-55
2023/09/28 05:49:13;;;;;;;11.82;4.88;;;;;;;14.65;100.00;101514.13;5048211;28;20471;-56
2023/09/28 05:51:38;;;;;;;10.38;5.18;;;;;;;14.60;100.00;101518.03;5054042;28;20395;-56
2023/09/28 05:54:04;;;;;;;9.10;4.65;;;;;;;14.61;100.00;101522.41;5048877;28;20463;-55
2023/09/28 05:56:29;;;;;;;8.77;5.15;;;;;;;14.59;100.00;101519.00;5044043;28;20025;-54
2023/09/28 05:58:55;;;;;;;11.80;4.65;;;;;;;14.60;100.00;101538.56;5054018;28;20029;-55
2023/09/28 06:01:22;;;;;;;12.75;4.82;;;;;;;14.57;100.00;101547.66;5054659;28;20025;-55
2023/09/28 06:03:47;;;;;;;9.35;4.88;;;;;;;14.58;100.00;101538.66;5048264;28;20033;-55
2023/09/28 06:06:17;;;;;;;12.52;5.35;;;;;;;14.56;100.00;101545.97;5049957;28;20374;-56
2023/09/28 06:08:46;;;;;;;12.88;4.80;;;;;;;14.54;100.00;101545.25;5044942;28;20458;-55
2023/09/28 06:11:13;;;;;;;9.67;4.93;;;;;;;14.50;100.00;101532.25;5050850;28;20025;-56
2023/09/28 06:13:40;;;;;;;12.02;5.22;;;;;;;14.53;100.00;101530.16;5047989;28;20276;-56
2023/09/28 06:16:05;;;;;;;11.18;5.28;;;;;;;14.54;100.00;101537.22;5050156;28;20074;-55
2023/09/28 06:18:31;;;;;;;12.65;4.50;;;;;;;14.51;100.00;101529.47;5049514;28;20032;-56
2023/09/28 06:20:56;;;;;;;11.00;5.15;;;;;;;14.52;100.00;101541.84;5047399;28;20043;-54
2023/09/28 06:23:21;;;;;;;13.50;4.72;;;;;;;14.54;100.00;101542.56;5049212;28;20040;-55
2023/09/28 06:25:47;;;;;;;10.68;4.72;;;;;;;14.55;100.00;101551.44;5051060;28;20421;-56
2023/09/28 06:28:12;;;;;;;12.10;4.50;;;;;;;14.55;100.00;101554.94;5051143;28;20017;-53
2023/09/28 06:30:38;;;;;;;10.55;4.38;;;;;;;14.57;100.00;101560.16;5050315;28;20395;-56
2023/09/28 06:33:03;;;;;;;14.35;5.10;;;;;;;14.57;100.00;101570.84;5052020;28;20608;-54
2023/09/28 06:35:29;;;;;;;17.80;5.03;;;;;;;14.57;100.00;101577.06;5050437;28;20155;-56
2023/09/28 06:37:54;;;;;;;13.35;4.78;;;;;;;14.59;100.00;101571.63;5050333;28;20542;-55
2023/09/28 06:40:20;;;;;;;16.42;5.18;;;;;;;14.60;100.00;101576.00;5049598;28;20029;-56
2023/09/28 06:42:45;;;;;;;13.43;4.82;;;;;;;14.63;100.00;101575.75;5050003;28;20399;-56
2023/09/28 06:45:11;;;;;;;13.40;4.75;;;;;;;14.64;100.00;101574.78;5050534;28;20453;-55
2023/09/28 06:47:36;;;;;;;13.77;4.10;;;;;;;14.67;100.00;101571.00;5047343;28;20029;-56
2023/09/28 06:50:04;;;;;;;22.10;4.63;;;;;;;14.70;100.00;101576.09;5046023;28;20033;-56
2023/09/28 06:52:30;;;;;;;15.57;4.50;;;;;;;14.72;100.00;101585.69;5048996;28;20028;-55
2023/09/28 06:54:55;;;;;;;18.98;4.57;;;;;;;14.76;100.00;101592.47;5049059;28;20036;-56
2023/09/28 06:57:21;;;;;;;17.15;4.57;;;;;;;14.80;100.00;101601.09;5049007;28;20048;-56
2023/09/28 06:59:46;;;;;;;16.08;4.35;;;;;;;14.85;100.00;101598.88;5048111;28;20029;-54
2023/09/28 07:02:11;;;;;;;18.35;4.45;;;;;;;14.90;100.00;101599.34;5052418;28;20078;-53
2023/09/28 07:04:37;;;;;;;17.60;4.53;;;;;;;14.96;100.00;101606.03;5050584;28;20021;-55
2023/09/28 07:07:02;;;;;;;20.08;4.85;;;;;;;15.02;100.00;101616.22;5050414;28;20486;-55
2023/09/28 07:09:28;;;;;;;19.13;4.65;;;;;;;15.09;100.00;101617.41;5049207;28;20492;-54
2023/09/28 07:11:54;;;;;;;13.95;4.55;;;;;;;15.20;100.00;101604.94;5050778;28;20052;-56
2023/09/28 07:14:19;;;;;;;16.70;5.00;;;;;;;15.27;100.00;101590.06;5048583;28;20032;-54
2023/09/28 07:16:44;;;;;;;21.75;5.03;;;;;;;15.31;100.00;101589.69;5048539;28;20440;-55
2023/09/28 07:19:09;;;;;;;14.93;4.20;;;;;;;15.45;100.00;101611.75;5049770;28;20082;-55
2023/09/28 07:21:36;;;;;;;18.15;5.05;;;;;;;15.54;100.00;101597.59;5050812;28;20035;-53
2023/09/28 07:24:02;;;;;;;20.50;4.80;;;;;;;15.59;100.00;101592.69;5049083;28;20117;-55
2023/09/28 07:26:27;;;;;;;18.35;4.90;;;;;;;15.62;100.00;101592.44;5051756;28;20498;-54
2023/09/28 07:28:53;;;;;;;20.10;5.55;;;;;;;15.67;100.00;101584.84;5045340;28;20032;-55
2023/09/28 07:31:20;;;;;;;21.15;4.78;;;;;;;15.69;100.00;101595.41;5038675;28;20547;-56
2023/09/28 07:33:46;;;;;;;24.60;4.80;;;;;;;15.75;100.00;101620.81;5046036;28;20033;-57
2023/09/28 07:36:11;;;;;;;22.48;4.72;;;;;;;15.77;100.00;101621.56;5043199;28;20020;-56
2023/09/28 07:38:36;;;;;;;21.38;4.95;;;;;;;15.83;100.00;101621.88;5049866;28;20044;-55
2023/09/28 07:41:02;;;;;;;18.92;4.57;;;;;;;15.91;100.00;101626.56;5045118;28;20135;-55
2023/09/28 07:43:29;;;;;;;21.17;5.15;;;;;;;16.00;100.00;101638.31;5044642;28;20429;-55
2023/09/28 07:45:55;;;;;;;19.75;5.10;;;;;;;16.10;100.00;101633.84;5043989;28;20065;-55
2023/09/28 07:48:20;;;;;;;17.80;4.68;;;;;;;16.19;100.00;101629.53;5046942;28;20022;-55
2023/09/28 07:50:46;;;;;;;25.48;5.28;;;;;;;16.28;100.00;101623.34;5048689;28;20035;-56
2023/09/28 07:53:11;;;;;;;19.45;4.47;;;;;;;16.34;100.00;101624.66;5047504;28;20059;-53
2023/09/28 07:55:37;;;;;;;16.58;4.70;;;;;;;16.40;100.00;101635.69;5041464;28;20036;-53
2023/09/28 07:58:02;;;;;;;16.15;4.25;;;;;;;16.50;100.00;101634.84;5049058;28;20036;-54
2023/09/28 08:00:27;;;;;;;26.90;6.05;;;;;;;16.59;100.00;101647.44;5034541;28;20094;-56
2023/09/28 08:02:53;;;;;;;22.23;4.65;;;;;;;16.70;100.00;101636.56;5025212;28;20036;-52
2023/09/28 08:05:18;;;;;;;23.25;5.43;;;;;;;16.78;100.00;101649.31;5046790;28;20036;-55
2023/09/28 08:07:43;;;;;;;21.63;4.93;;;;;;;16.90;100.00;101655.41;5050665;28;20029;-55
2023/09/28 08:10:09;;;;;;;20.92;4.47;;;;;;;17.06;100.00;101646.84;5048850;28;20112;-55
2023/09/28 08:12:36;;;;;;;23.70;5.20;;;;;;;17.21;100.00;101656.16;5049737;28;20029;-52
2023/09/28 08:15:01;;;;;;;21.95;4.50;;;;;;;17.29;97.93;101655.47;5051224;28;20044;-54
2023/09/28 08:17:26;;;;;;;26.65;4.80;;;;;;;17.45;98.61;101653.03;5050294;28;20024;-53
2023/09/28 08:19:52;;;;;;;23.45;4.60;;;;;;;17.58;96.32;101652.72;5050912;28;20070;-52
2023/09/28 08:22:17;;;;;;;24.33;5.30;;;;;;;17.72;95.01;101667.56;5051157;28;20017;-52
2023/09/28 08:24:43;;;;;;;24.33;5.45;;;;;;;17.89;93.90;101658.78;5050589;28;20394;-53
2023/09/28 08:27:09;;;;;;;18.33;5.38;;;;;;;18.02;93.41;101660.28;5050816;28;20028;-52
2023/09/28 08:29:35;;;;;;;19.33;4.68;;;;;;;18.20;92.51;101665.75;5050433;28;20025;-52
2023/09/28 08:32:01;;;;;;;20.65;4.60;;;;;;;18.33;90.64;101670.81;5049612;28;20029;-52
2023/09/28 08:34:26;;;;;;;24.90;4.93;;;;;;;18.45;89.43;101666.91;5051280;28;20052;-54
2023/09/28 08:36:51;;;;;;;25.73;4.68;;;;;;;18.52;90.11;101676.09;5046612;28;20029;-55
2023/09/28 08:39:17;;;;;;;22.08;4.05;;;;;;;18.52;86.04;101678.78;5046527;28;20162;-54
2023/09/28 08:41:52;;;;;;;22.48;5.05;;;;;;;18.59;87.85;101690.63;5045887;28;20083;-53
2023/09/28 08:44:20;;;;;;;22.38;4.85;;;;;;;18.57;85.00;101700.72;5042097;28;20044;-51
2023/09/28 08:46:47;;;;;;;21.70;5.07;;;;;;;18.61;85.56;101698.56;5049857;28;20033;-53
2023/09/28 08:49:15;;;;;;;16.05;4.97;;;;;;;18.63;85.03;101694.72;5045066;28;20037;-55
2023/09/28 08:51:44;;;;;;;18.93;4.77;;;;;;;18.64;83.30;101695.56;5045803;28;20475;-54
2023/09/28 08:54:09;;;;;;;21.38;5.55;;;;;;;18.71;83.37;101703.91;5046607;28;20037;-52
2023/09/28 08:56:37;;;;;;;25.23;5.93;;;;;;;18.80;83.93;101711.06;5047043;28;20031;-53
2023/09/28 08:59:06;;;;;;;22.00;5.47;;;;;;;18.80;83.50;101711.91;5048771;28;20132;-53
2023/09/28 09:01:34;;;;;;;19.90;4.93;;;;;;;18.94;83.40;101704.38;5048115;28;20102;-53
2023/09/28 09:03:59;;;;;;;19.60;5.37;;;;;;;18.96;83.15;101705.06;5041987;28;20048;-52
2023/09/28 09:06:28;;;;;;;18.45;5.03;;;;;;;19.00;83.73;101701.03;5043979;28;20103;-53
2023/09/28 09:08:57;;;;;;;25.30;5.00;;;;;;;19.08;83.75;101682.28;5044270;28;20103;-51
2023/09/28 09:11:24;;;;;;;18.92;4.47;;;;;;;19.35;83.40;101705.63;5043074;28;20075;-52
2023/09/28 09:13:51;;;;;;;20.77;4.90;;;;;;;19.49;81.67;101709.59;5048051;28;20044;-53
2023/09/28 09:16:16;;;;;;;20.27;4.88;;;;;;;19.75;82.14;101708.81;5049930;28;20029;-52
2023/09/28 09:18:42;;;;;;;23.40;4.60;;;;;;;19.93;80.51;101701.56;5050588;28;20475;-55
2023/09/28 09:21:08;;;;;;;18.38;5.05;;;;;;;20.04;78.28;101708.53;5048736;28;20029;-53
2023/09/28 09:23:33;;;;;;;23.92;5.65;;;;;;;20.06;77.92;101709.22;5050026;28;20059;-52
2023/09/28 09:25:58;;;;;;;22.15;4.53;;;;;;;20.20;75.85;101707.81;5049506;28;20051;-52
2023/09/28 09:28:29;;;;;;;21.45;5.10;;;;;;;20.28;76.93;101707.84;5047351;28;20056;-53
2023/09/28 09:30:56;;;;;;;21.25;4.38;;;;;;;20.49;76.23;101714.69;5049426;28;20479;-52
2023/09/28 09:33:22;;;;;;;22.45;5.03;;;;;;;20.57;75.11;101717.44;5046491;28;20036;-53
2023/09/28 09:35:49;;;;;;;17.85;4.13;;;;;;;20.68;74.07;101710.91;5050293;28;20031;-53
2023/09/28 09:38:15;;;;;;;19.95;4.75;;;;;;;20.76;72.86;101707.41;5045614;28;20029;-52
2023/09/28 09:40:40;;;;;;;17.55;4.50;;;;;;;20.89;73.36;101707.78;5051413;28;20078;-52
2023/09/28 09:43:07;;;;;;;18.10;4.82;;;;;;;21.04;71.56;101703.41;5053416;28;20045;-52
2023/09/28 09:45:36;;;;;;;19.73;4.57;;;;;;;21.03;70.33;101709.84;5052036;28;20025;-52
2023/09/28 09:48:02;;;;;;;18.65;4.85;;;;;;;21.03;68.65;101709.84;5050973;28;20392;-52
2023/09/28 09:50:31;;;;;;;16.08;4.20;;;;;;;21.05;68.30;101718.63;5052650;28;20032;-54
2023/09/28 09:52:57;;;;;;;24.50;4.32;;;;;;;21.06;69.94;101716.75;5051961;28;20086;-52
2023/09/28 09:55:22;;;;;;;22.05;4.57;;;;;;;21.06;70.22;101719.47;5051748;28;20029;-52
2023/09/28 09:57:48;;;;;;;17.52;4.22;;;;;;;21.13;70.18;101722.34;5049999;28;20037;-52
2023/09/28 10:00:19;;;;;;;19.52;4.13;;;;;;;21.15;71.34;101718.47;5051417;28;20104;-52
2023/09/28 10:02:46;;;;;;;20.50;4.60;;;;;;;21.39;70.08;101723.06;5040666;28;20044;-52
2023/09/28 10:05:15;;;;;;;22.73;4.40;;;;;;;21.49;69.83;101716.69;5046871;28;20120;-52
2023/09/28 10:07:42;;;;;;;21.17;4.60;;;;;;;21.69;69.08;101720.75;5044017;28;20037;-52
2023/09/28 10:10:08;;;;;;;20.30;4.13;;;;;;;21.94;68.94;101716.16;5039416;28;20037;-52
2023/09/28 10:12:34;;;;;;;18.15;3.92;;;;;;;22.24;70.30;101704.75;5039569;28;20475;-52
2023/09/28 10:15:00;;;;;;;17.98;4.68;;;;;;;22.36;65.61;101697.97;5045210;28;20033;-54
2023/09/28 10:17:28;;;;;;;17.55;4.22;;;;;;;22.41;65.60;101690.19;5044033;28;20029;-55
2023/09/28 10:19:59;;;;;;;16.23;4.07;;;;;;;22.48;64.99;101684.91;5048545;28;20025;-52
2023/09/28 10:22:24;;;;;;;18.17;4.13;;;;;;;22.57;62.59;101680.31;5049257;28;20382;-52
2023/09/28 10:24:49;;;;;;;20.92;4.43;;;;;;;22.62;63.44;101677.94;5045722;28;20022;-54
2023/09/28 10:27:15;;;;;;;14.52;3.85;;;;;;;22.54;62.08;101679.63;5049578;28;20044;-52
2023/09/28 10:29:41;;;;;;;15.93;4.00;;;;;;;22.50;61.51;101678.31;5047918;28;20047;-52
2023/09/28 10:32:28;;;;;;;17.65;3.65;;;;;;;22.71;64.12;101685.81;5048140;28;20745;-52
2023/09/28 10:35:26;;;;;;;15.40;4.20;;;;;;;22.90;64.26;101686.41;5047986;28;20056;-52
2023/09/28 10:38:10;;;;;;;;;;;;;;;23.09;65.92;101695.94;5048046;28;20036;-52
2023/09/28 10:40:35;;;;;;;13.57;3.55;;;;;;;23.12;61.11;101692.88;5052468;28;19913;-54
2023/09/28 10:43:09;;;;;;;14.50;4.57;;;;;;;23.17;61.62;101698.59;5047944;28;20053;-52
2023/09/28 10:45:37;;;;;;;18.35;3.95;;;;;;;23.09;61.92;101693.25;5050376;28;20271;-54
2023/09/28 10:48:05;;;;;;;18.58;4.00;;;;;;;23.16;60.12;101696.06;5048420;28;20467;-53
2023/09/28 10:50:30;;;;;;;20.33;4.13;;;;;;;23.22;60.13;101695.38;5047258;28;20028;-53
2023/09/28 10:52:55;;;;;;;17.05;3.47;;;;;;;23.39;61.49;101698.78;5050159;28;20482;-52
2023/09/28 10:55:21;;;;;;;18.45;3.80;;;;;;;23.37;60.58;101700.84;5043131;28;20021;-53
2023/09/28 10:57:46;;;;;;;19.05;4.07;;;;;;;23.48;60.46;101696.84;5041239;28;20034;-52
2023/09/28 11:00:12;;;;;;;13.80;3.50;;;;;;;23.48;59.12;101699.56;5046834;28;20036;-52
2023/09/28 11:02:37;;;;;;;12.95;3.67;;;;;;;23.40;59.23;101709.47;5047799;28;20021;-54
2023/09/28 11:05:07;;;;;;;20.00;4.68;;;;;;;23.40;58.97;101712.16;5051411;28;20035;-52
2023/09/28 11:07:33;;;;;;;18.85;4.03;;;;;;;23.43;59.36;101717.22;5051511;28;20029;-53
2023/09/28 11:09:58;;;;;;;16.27;4.00;;;;;;;23.45;59.51;101715.19;5053308;28;20051;-53
2023/09/28 11:12:26;;;;;;;14.15;3.75;;;;;;;23.52;60.04;101722.59;5052332;28;20493;-53
2023/09/28 11:14:51;;;;;;;15.30;3.83;;;;;;;23.55;58.67;101722.19;5045244;28;20407;-53